sensor_id;sensor_type;location;lat;lon;timestamp;P1;durP1;ratioP1;P2;durP2;ratioP2
8281;SDS011;25606;42.686;23.136;2022-12-29T00:00:01;28.10;;;20.80;;
8281;SDS011;25606;42.686;23.136;2022-12-29T00:02:29;28.57;;;20.97;;
8281;SDS011;25606;42.686;23.136;2022-12-29T00:04:58;27.03;;;20.10;;
8281;SDS011;25606;42.686;23.136;2022-12-29T00:07:25;28.30;;;19.57;;
8281;SDS011;25606;42.686;23.136;2022-12-29T00:09:52;28.17;;;20.53;;
8281;SDS011;25606;42.686;23.136;2022-12-29T00:12:20;27.57;;;20.53;;
8281;SDS011;25606;42.686;23.136;2022-12-29T00:14:47;25.10;;;18.63;;
8281;SDS011;25606;42.686;23.136;2022-12-29T00:17:37;26.83;;;19.77;;
8281;SDS011;25606;42.686;23.136;2022-12-29T00:20:07;28.30;;;19.57;;
8281;SDS011;25606;42.686;23.136;2022-12-29T00:22:51;25.63;;;19.50;;
8281;SDS011;25606;42.686;23.136;2022-12-29T00:25:36;25.57;;;19.13;;
8281;SDS011;25606;42.686;23.136;2022-12-29T00:28:21;27.87;;;18.97;;
8281;SDS011;25606;42.686;23.136;2022-12-29T00:31:07;27.73;;;19.73;;
8281;SDS011;25606;42.686;23.136;2022-12-29T00:33:52;27.03;;;19.03;;
8281;SDS011;25606;42.686;23.136;2022-12-29T00:36:39;26.43;;;19.57;;
8281;SDS011;25606;42.686;23.136;2022-12-29T00:39:08;25.07;;;19.27;;
8281;SDS011;25606;42.686;23.136;2022-12-29T00:41:54;23.87;;;18.37;;
8281;SDS011;25606;42.686;23.136;2022-12-29T00:44:39;27.00;;;17.47;;
8281;SDS011;25606;42.686;23.136;2022-12-29T00:47:07;25.77;;;18.47;;
8281;SDS011;25606;42.686;23.136;2022-12-29T00:49:34;24.77;;;17.77;;
8281;SDS011;25606;42.686;23.136;2022-12-29T00:52:03;24.87;;;17.83;;
8281;SDS011;25606;42.686;23.136;2022-12-29T00:54:31;27.37;;;19.00;;
8281;SDS011;25606;42.686;23.136;2022-12-29T00:56:58;25.77;;;18.80;;
8281;SDS011;25606;42.686;23.136;2022-12-29T00:59:26;25.03;;;17.90;;
8281;SDS011;25606;42.686;23.136;2022-12-29T01:01:53;22.27;;;17.23;;
8281;SDS011;25606;42.686;23.136;2022-12-29T01:04:21;24.77;;;18.17;;
8281;SDS011;25606;42.686;23.136;2022-12-29T01:06:50;27.53;;;18.77;;
8281;SDS011;25606;42.686;23.136;2022-12-29T01:09:18;25.03;;;18.07;;
8281;SDS011;25606;42.686;23.136;2022-12-29T01:12:04;27.13;;;18.73;;
8281;SDS011;25606;42.686;23.136;2022-12-29T01:14:32;28.90;;;20.40;;
8281;SDS011;25606;42.686;23.136;2022-12-29T01:16:59;27.30;;;19.50;;
8281;SDS011;25606;42.686;23.136;2022-12-29T01:19:26;25.00;;;18.47;;
8281;SDS011;25606;42.686;23.136;2022-12-29T01:21:54;25.80;;;18.60;;
8281;SDS011;25606;42.686;23.136;2022-12-29T01:24:23;24.77;;;17.60;;
8281;SDS011;25606;42.686;23.136;2022-12-29T01:26:51;27.50;;;19.60;;
8281;SDS011;25606;42.686;23.136;2022-12-29T01:29:19;28.00;;;20.77;;
8281;SDS011;25606;42.686;23.136;2022-12-29T01:31:46;27.73;;;20.23;;
8281;SDS011;25606;42.686;23.136;2022-12-29T01:34:14;28.20;;;19.67;;
8281;SDS011;25606;42.686;23.136;2022-12-29T01:36:41;24.50;;;19.50;;
8281;SDS011;25606;42.686;23.136;2022-12-29T01:39:09;25.77;;;18.73;;
8281;SDS011;25606;42.686;23.136;2022-12-29T01:41:38;25.50;;;18.63;;
8281;SDS011;25606;42.686;23.136;2022-12-29T01:46:47;26.33;;;20.73;;
8281;SDS011;25606;42.686;23.136;2022-12-29T01:49:17;28.23;;;19.67;;
8281;SDS011;25606;42.686;23.136;2022-12-29T01:51:45;27.97;;;19.83;;
8281;SDS011;25606;42.686;23.136;2022-12-29T01:54:16;29.07;;;20.23;;
8281;SDS011;25606;42.686;23.136;2022-12-29T01:56:48;25.80;;;18.73;;
8281;SDS011;25606;42.686;23.136;2022-12-29T01:59:17;32.10;;;20.27;;
8281;SDS011;25606;42.686;23.136;2022-12-29T02:01:45;25.67;;;18.53;;
8281;SDS011;25606;42.686;23.136;2022-12-29T02:04:12;27.20;;;18.33;;
8281;SDS011;25606;42.686;23.136;2022-12-29T02:06:41;26.93;;;19.47;;
8281;SDS011;25606;42.686;23.136;2022-12-29T02:09:10;26.53;;;18.80;;
8281;SDS011;25606;42.686;23.136;2022-12-29T02:11:37;24.67;;;18.63;;
8281;SDS011;25606;42.686;23.136;2022-12-29T02:14:09;27.77;;;19.30;;
8281;SDS011;25606;42.686;23.136;2022-12-29T02:16:40;25.60;;;18.70;;
8281;SDS011;25606;42.686;23.136;2022-12-29T02:22:02;22.87;;;17.17;;
8281;SDS011;25606;42.686;23.136;2022-12-29T02:24:37;26.50;;;18.20;;
8281;SDS011;25606;42.686;23.136;2022-12-29T02:30:03;22.70;;;17.10;;
8281;SDS011;25606;42.686;23.136;2022-12-29T02:32:36;25.67;;;18.33;;
8281;SDS011;25606;42.686;23.136;2022-12-29T02:35:06;24.27;;;19.13;;
8281;SDS011;25606;42.686;23.136;2022-12-29T02:37:37;26.60;;;18.40;;
8281;SDS011;25606;42.686;23.136;2022-12-29T02:40:08;29.20;;;19.43;;
8281;SDS011;25606;42.686;23.136;2022-12-29T02:42:40;25.17;;;18.50;;
8281;SDS011;25606;42.686;23.136;2022-12-29T02:45:12;26.10;;;20.13;;
8281;SDS011;25606;42.686;23.136;2022-12-29T02:47:43;27.10;;;19.00;;
8281;SDS011;25606;42.686;23.136;2022-12-29T02:50:14;29.03;;;19.50;;
8281;SDS011;25606;42.686;23.136;2022-12-29T02:52:46;27.77;;;19.27;;
8281;SDS011;25606;42.686;23.136;2022-12-29T02:55:15;23.37;;;18.43;;
8281;SDS011;25606;42.686;23.136;2022-12-29T02:57:41;25.53;;;19.07;;
8281;SDS011;25606;42.686;23.136;2022-12-29T03:00:10;24.13;;;18.87;;
8281;SDS011;25606;42.686;23.136;2022-12-29T03:02:41;24.80;;;18.60;;
8281;SDS011;25606;42.686;23.136;2022-12-29T03:08:01;25.63;;;17.83;;
8281;SDS011;25606;42.686;23.136;2022-12-29T03:10:35;26.13;;;18.60;;
8281;SDS011;25606;42.686;23.136;2022-12-29T03:13:06;28.17;;;19.07;;
8281;SDS011;25606;42.686;23.136;2022-12-29T03:15:55;26.00;;;17.07;;
8281;SDS011;25606;42.686;23.136;2022-12-29T03:18:32;26.10;;;17.23;;
8281;SDS011;25606;42.686;23.136;2022-12-29T03:21:02;25.37;;;18.00;;
8281;SDS011;25606;42.686;23.136;2022-12-29T03:23:32;26.13;;;18.10;;
8281;SDS011;25606;42.686;23.136;2022-12-29T03:26:01;27.17;;;19.10;;
8281;SDS011;25606;42.686;23.136;2022-12-29T03:28:29;28.70;;;19.37;;
8281;SDS011;25606;42.686;23.136;2022-12-29T03:30:59;26.53;;;18.67;;
8281;SDS011;25606;42.686;23.136;2022-12-29T03:33:27;23.87;;;17.53;;
8281;SDS011;25606;42.686;23.136;2022-12-29T03:35:56;29.93;;;19.20;;
8281;SDS011;25606;42.686;23.136;2022-12-29T03:38:27;27.77;;;18.33;;
8281;SDS011;25606;42.686;23.136;2022-12-29T03:40:59;30.87;;;19.30;;
8281;SDS011;25606;42.686;23.136;2022-12-29T03:43:27;29.70;;;19.63;;
8281;SDS011;25606;42.686;23.136;2022-12-29T03:45:55;29.37;;;20.27;;
8281;SDS011;25606;42.686;23.136;2022-12-29T03:48:22;29.53;;;20.00;;
8281;SDS011;25606;42.686;23.136;2022-12-29T03:50:50;28.20;;;20.60;;
8281;SDS011;25606;42.686;23.136;2022-12-29T03:53:17;28.43;;;19.63;;
8281;SDS011;25606;42.686;23.136;2022-12-29T03:55:45;29.77;;;20.40;;
8281;SDS011;25606;42.686;23.136;2022-12-29T03:58:13;30.23;;;21.53;;
8281;SDS011;25606;42.686;23.136;2022-12-29T04:00:41;38.30;;;22.43;;
8281;SDS011;25606;42.686;23.136;2022-12-29T04:03:08;34.63;;;22.93;;
8281;SDS011;25606;42.686;23.136;2022-12-29T04:05:35;30.77;;;20.40;;
8281;SDS011;25606;42.686;23.136;2022-12-29T04:08:03;35.57;;;22.27;;
8281;SDS011;25606;42.686;23.136;2022-12-29T04:10:30;36.17;;;22.13;;
8281;SDS011;25606;42.686;23.136;2022-12-29T04:12:57;29.90;;;20.17;;
8281;SDS011;25606;42.686;23.136;2022-12-29T04:15:26;28.87;;;19.30;;
8281;SDS011;25606;42.686;23.136;2022-12-29T04:17:53;32.00;;;21.07;;
8281;SDS011;25606;42.686;23.136;2022-12-29T04:20:21;31.27;;;19.63;;
8281;SDS011;25606;42.686;23.136;2022-12-29T04:23:14;31.07;;;20.03;;
8281;SDS011;25606;42.686;23.136;2022-12-29T04:25:44;29.43;;;20.03;;
8281;SDS011;25606;42.686;23.136;2022-12-29T04:28:11;32.87;;;19.40;;
8281;SDS011;25606;42.686;23.136;2022-12-29T04:30:40;28.70;;;19.63;;
8281;SDS011;25606;42.686;23.136;2022-12-29T04:33:08;30.17;;;19.30;;
8281;SDS011;25606;42.686;23.136;2022-12-29T04:35:35;31.17;;;19.77;;
8281;SDS011;25606;42.686;23.136;2022-12-29T04:38:03;33.10;;;22.33;;
8281;SDS011;25606;42.686;23.136;2022-12-29T04:40:30;36.73;;;21.83;;
8281;SDS011;25606;42.686;23.136;2022-12-29T04:42:57;36.93;;;21.60;;
8281;SDS011;25606;42.686;23.136;2022-12-29T04:45:25;32.07;;;20.20;;
8281;SDS011;25606;42.686;23.136;2022-12-29T04:47:53;35.87;;;21.90;;
8281;SDS011;25606;42.686;23.136;2022-12-29T04:50:21;37.00;;;22.70;;
8281;SDS011;25606;42.686;23.136;2022-12-29T04:52:48;33.60;;;21.27;;
8281;SDS011;25606;42.686;23.136;2022-12-29T04:55:15;34.10;;;21.77;;
8281;SDS011;25606;42.686;23.136;2022-12-29T04:57:43;34.53;;;21.83;;
8281;SDS011;25606;42.686;23.136;2022-12-29T05:00:11;39.27;;;24.27;;
8281;SDS011;25606;42.686;23.136;2022-12-29T05:02:38;34.43;;;20.87;;
8281;SDS011;25606;42.686;23.136;2022-12-29T05:05:07;35.60;;;21.90;;
8281;SDS011;25606;42.686;23.136;2022-12-29T05:07:34;35.27;;;21.77;;
8281;SDS011;25606;42.686;23.136;2022-12-29T05:10:02;37.07;;;23.27;;
8281;SDS011;25606;42.686;23.136;2022-12-29T05:12:30;37.07;;;25.00;;
8281;SDS011;25606;42.686;23.136;2022-12-29T05:14:57;36.50;;;23.77;;
8281;SDS011;25606;42.686;23.136;2022-12-29T05:17:25;33.53;;;22.77;;
8281;SDS011;25606;42.686;23.136;2022-12-29T05:19:52;38.17;;;24.17;;
8281;SDS011;25606;42.686;23.136;2022-12-29T05:22:21;36.17;;;23.87;;
8281;SDS011;25606;42.686;23.136;2022-12-29T05:24:48;35.40;;;21.43;;
8281;SDS011;25606;42.686;23.136;2022-12-29T05:28:14;35.03;;;22.70;;
8281;SDS011;25606;42.686;23.136;2022-12-29T05:30:42;32.30;;;21.13;;
8281;SDS011;25606;42.686;23.136;2022-12-29T05:33:09;33.00;;;20.23;;
8281;SDS011;25606;42.686;23.136;2022-12-29T05:35:37;33.40;;;20.67;;
8281;SDS011;25606;42.686;23.136;2022-12-29T05:38:04;35.63;;;22.40;;
8281;SDS011;25606;42.686;23.136;2022-12-29T05:40:31;39.07;;;26.10;;
8281;SDS011;25606;42.686;23.136;2022-12-29T05:42:59;37.67;;;23.50;;
8281;SDS011;25606;42.686;23.136;2022-12-29T05:45:27;33.53;;;22.13;;
8281;SDS011;25606;42.686;23.136;2022-12-29T05:47:55;30.13;;;20.33;;
8281;SDS011;25606;42.686;23.136;2022-12-29T05:50:22;30.90;;;21.07;;
8281;SDS011;25606;42.686;23.136;2022-12-29T05:52:49;29.93;;;19.90;;
8281;SDS011;25606;42.686;23.136;2022-12-29T05:55:17;27.23;;;19.17;;
8281;SDS011;25606;42.686;23.136;2022-12-29T05:57:44;29.83;;;20.47;;
8281;SDS011;25606;42.686;23.136;2022-12-29T06:00:12;24.10;;;17.80;;
8281;SDS011;25606;42.686;23.136;2022-12-29T06:02:41;28.93;;;19.73;;
8281;SDS011;25606;42.686;23.136;2022-12-29T06:05:08;25.43;;;17.80;;
8281;SDS011;25606;42.686;23.136;2022-12-29T06:07:36;22.70;;;16.60;;
8281;SDS011;25606;42.686;23.136;2022-12-29T06:10:03;26.40;;;18.50;;
8281;SDS011;25606;42.686;23.136;2022-12-29T06:12:31;25.40;;;17.67;;
8281;SDS011;25606;42.686;23.136;2022-12-29T06:14:58;26.33;;;17.87;;
8281;SDS011;25606;42.686;23.136;2022-12-29T06:17:25;24.13;;;16.43;;
8281;SDS011;25606;42.686;23.136;2022-12-29T06:19:54;24.93;;;17.03;;
8281;SDS011;25606;42.686;23.136;2022-12-29T06:22:21;26.00;;;17.80;;
8281;SDS011;25606;42.686;23.136;2022-12-29T06:24:49;25.13;;;18.03;;
8281;SDS011;25606;42.686;23.136;2022-12-29T06:27:16;24.50;;;18.07;;
8281;SDS011;25606;42.686;23.136;2022-12-29T06:29:43;24.80;;;17.27;;
8281;SDS011;25606;42.686;23.136;2022-12-29T06:32:11;25.20;;;16.67;;
8281;SDS011;25606;42.686;23.136;2022-12-29T06:34:38;24.83;;;16.53;;
8281;SDS011;25606;42.686;23.136;2022-12-29T06:37:07;24.63;;;17.17;;
8281;SDS011;25606;42.686;23.136;2022-12-29T06:39:35;23.73;;;16.67;;
8281;SDS011;25606;42.686;23.136;2022-12-29T06:42:02;25.87;;;17.07;;
8281;SDS011;25606;42.686;23.136;2022-12-29T06:44:29;26.63;;;17.83;;
8281;SDS011;25606;42.686;23.136;2022-12-29T06:46:57;24.27;;;17.50;;
8281;SDS011;25606;42.686;23.136;2022-12-29T06:49:24;22.53;;;16.97;;
8281;SDS011;25606;42.686;23.136;2022-12-29T06:51:51;22.90;;;16.60;;
8281;SDS011;25606;42.686;23.136;2022-12-29T06:54:20;24.47;;;16.87;;
8281;SDS011;25606;42.686;23.136;2022-12-29T06:56:47;26.93;;;20.03;;
8281;SDS011;25606;42.686;23.136;2022-12-29T06:59:15;24.37;;;17.27;;
8281;SDS011;25606;42.686;23.136;2022-12-29T07:01:42;25.97;;;16.67;;
8281;SDS011;25606;42.686;23.136;2022-12-29T07:04:09;26.63;;;17.80;;
8281;SDS011;25606;42.686;23.136;2022-12-29T07:06:37;25.93;;;16.77;;
8281;SDS011;25606;42.686;23.136;2022-12-29T07:09:05;22.63;;;16.40;;
8281;SDS011;25606;42.686;23.136;2022-12-29T07:11:34;23.93;;;16.43;;
8281;SDS011;25606;42.686;23.136;2022-12-29T07:14:01;22.50;;;15.87;;
8281;SDS011;25606;42.686;23.136;2022-12-29T07:16:29;21.67;;;16.03;;
8281;SDS011;25606;42.686;23.136;2022-12-29T07:18:56;21.17;;;16.00;;
8281;SDS011;25606;42.686;23.136;2022-12-29T07:21:24;24.40;;;17.33;;
8281;SDS011;25606;42.686;23.136;2022-12-29T07:23:51;23.70;;;16.50;;
8281;SDS011;25606;42.686;23.136;2022-12-29T07:26:20;23.37;;;16.00;;
8281;SDS011;25606;42.686;23.136;2022-12-29T07:28:49;22.30;;;14.90;;
8281;SDS011;25606;42.686;23.136;2022-12-29T07:31:17;22.17;;;16.23;;
8281;SDS011;25606;42.686;23.136;2022-12-29T07:33:44;22.43;;;15.63;;
8281;SDS011;25606;42.686;23.136;2022-12-29T07:36:12;23.17;;;15.87;;
8281;SDS011;25606;42.686;23.136;2022-12-29T07:38:40;25.23;;;16.57;;
8281;SDS011;25606;42.686;23.136;2022-12-29T07:41:07;21.00;;;15.80;;
8281;SDS011;25606;42.686;23.136;2022-12-29T07:43:35;23.63;;;16.87;;
8281;SDS011;25606;42.686;23.136;2022-12-29T07:46:03;22.47;;;16.47;;
8281;SDS011;25606;42.686;23.136;2022-12-29T07:48:31;25.20;;;17.60;;
8281;SDS011;25606;42.686;23.136;2022-12-29T07:51:01;25.33;;;20.30;;
8281;SDS011;25606;42.686;23.136;2022-12-29T07:53:28;26.17;;;17.77;;
8281;SDS011;25606;42.686;23.136;2022-12-29T07:55:55;22.07;;;15.70;;
8281;SDS011;25606;42.686;23.136;2022-12-29T07:58:23;24.10;;;16.63;;
8281;SDS011;25606;42.686;23.136;2022-12-29T08:00:52;25.63;;;18.33;;
8281;SDS011;25606;42.686;23.136;2022-12-29T08:03:21;30.07;;;19.23;;
8281;SDS011;25606;42.686;23.136;2022-12-29T08:05:48;64.20;;;40.00;;
8281;SDS011;25606;42.686;23.136;2022-12-29T08:08:16;31.90;;;21.83;;
8281;SDS011;25606;42.686;23.136;2022-12-29T08:10:43;25.53;;;16.43;;
8281;SDS011;25606;42.686;23.136;2022-12-29T08:13:10;25.33;;;17.17;;
8281;SDS011;25606;42.686;23.136;2022-12-29T08:15:38;26.80;;;17.23;;
8281;SDS011;25606;42.686;23.136;2022-12-29T08:18:05;21.37;;;15.50;;
8281;SDS011;25606;42.686;23.136;2022-12-29T08:20:34;21.73;;;16.73;;
8281;SDS011;25606;42.686;23.136;2022-12-29T08:23:02;25.13;;;17.07;;
8281;SDS011;25606;42.686;23.136;2022-12-29T08:25:29;24.60;;;17.30;;
8281;SDS011;25606;42.686;23.136;2022-12-29T08:27:56;23.03;;;17.10;;
8281;SDS011;25606;42.686;23.136;2022-12-29T08:30:24;24.73;;;17.20;;
8281;SDS011;25606;42.686;23.136;2022-12-29T08:32:51;24.57;;;18.50;;
8281;SDS011;25606;42.686;23.136;2022-12-29T08:35:18;30.73;;;18.03;;
8281;SDS011;25606;42.686;23.136;2022-12-29T08:37:47;24.13;;;17.47;;
8281;SDS011;25606;42.686;23.136;2022-12-29T08:40:14;25.50;;;18.23;;
8281;SDS011;25606;42.686;23.136;2022-12-29T08:42:42;25.67;;;18.90;;
8281;SDS011;25606;42.686;23.136;2022-12-29T08:45:10;25.10;;;18.53;;
8281;SDS011;25606;42.686;23.136;2022-12-29T08:47:37;24.73;;;17.20;;
8281;SDS011;25606;42.686;23.136;2022-12-29T08:50:05;23.57;;;17.07;;
8281;SDS011;25606;42.686;23.136;2022-12-29T08:52:33;23.20;;;16.80;;
8281;SDS011;25606;42.686;23.136;2022-12-29T08:55:02;23.83;;;16.57;;
8281;SDS011;25606;42.686;23.136;2022-12-29T08:57:29;23.40;;;16.57;;
8281;SDS011;25606;42.686;23.136;2022-12-29T08:59:56;25.47;;;16.23;;
8281;SDS011;25606;42.686;23.136;2022-12-29T09:02:24;26.03;;;17.50;;
8281;SDS011;25606;42.686;23.136;2022-12-29T09:04:51;22.00;;;15.67;;
8281;SDS011;25606;42.686;23.136;2022-12-29T09:07:18;21.07;;;16.07;;
8281;SDS011;25606;42.686;23.136;2022-12-29T09:09:46;21.73;;;16.23;;
8281;SDS011;25606;42.686;23.136;2022-12-29T09:12:15;20.23;;;15.43;;
8281;SDS011;25606;42.686;23.136;2022-12-29T09:14:42;21.40;;;15.40;;
8281;SDS011;25606;42.686;23.136;2022-12-29T09:17:09;22.03;;;16.00;;
8281;SDS011;25606;42.686;23.136;2022-12-29T09:19:54;23.40;;;16.63;;
8281;SDS011;25606;42.686;23.136;2022-12-29T09:22:22;18.93;;;14.43;;
8281;SDS011;25606;42.686;23.136;2022-12-29T09:24:49;22.93;;;17.13;;
8281;SDS011;25606;42.686;23.136;2022-12-29T09:27:18;22.33;;;15.90;;
8281;SDS011;25606;42.686;23.136;2022-12-29T09:29:45;21.10;;;16.20;;
8281;SDS011;25606;42.686;23.136;2022-12-29T09:32:13;20.53;;;16.13;;
8281;SDS011;25606;42.686;23.136;2022-12-29T09:34:40;23.83;;;15.90;;
8281;SDS011;25606;42.686;23.136;2022-12-29T09:37:07;19.40;;;15.27;;
8281;SDS011;25606;42.686;23.136;2022-12-29T09:39:35;20.00;;;14.73;;
8281;SDS011;25606;42.686;23.136;2022-12-29T09:42:04;22.87;;;15.10;;
8281;SDS011;25606;42.686;23.136;2022-12-29T09:44:39;19.33;;;14.67;;
8281;SDS011;25606;42.686;23.136;2022-12-29T09:47:10;18.70;;;13.77;;
8281;SDS011;25606;42.686;23.136;2022-12-29T09:49:40;18.27;;;14.33;;
8281;SDS011;25606;42.686;23.136;2022-12-29T09:52:12;19.47;;;13.27;;
8281;SDS011;25606;42.686;23.136;2022-12-29T09:54:41;20.37;;;15.17;;
8281;SDS011;25606;42.686;23.136;2022-12-29T09:57:18;19.30;;;13.77;;
8281;SDS011;25606;42.686;23.136;2022-12-29T09:59:48;20.33;;;14.53;;
8281;SDS011;25606;42.686;23.136;2022-12-29T10:02:23;21.67;;;14.70;;
8281;SDS011;25606;42.686;23.136;2022-12-29T10:04:54;19.20;;;14.07;;
8281;SDS011;25606;42.686;23.136;2022-12-29T10:07:24;19.33;;;14.10;;
8281;SDS011;25606;42.686;23.136;2022-12-29T10:09:56;19.20;;;13.03;;
8281;SDS011;25606;42.686;23.136;2022-12-29T10:12:29;19.33;;;13.37;;
8281;SDS011;25606;42.686;23.136;2022-12-29T10:15:03;18.43;;;13.30;;
8281;SDS011;25606;42.686;23.136;2022-12-29T10:17:34;19.17;;;13.70;;
8281;SDS011;25606;42.686;23.136;2022-12-29T10:20:18;22.43;;;13.37;;
8281;SDS011;25606;42.686;23.136;2022-12-29T10:22:52;18.23;;;13.43;;
8281;SDS011;25606;42.686;23.136;2022-12-29T10:25:22;17.33;;;13.00;;
8281;SDS011;25606;42.686;23.136;2022-12-29T10:27:52;17.97;;;13.53;;
8281;SDS011;25606;42.686;23.136;2022-12-29T10:30:22;19.27;;;14.67;;
8281;SDS011;25606;42.686;23.136;2022-12-29T10:32:51;15.93;;;12.53;;
8281;SDS011;25606;42.686;23.136;2022-12-29T10:35:20;18.70;;;13.60;;
8281;SDS011;25606;42.686;23.136;2022-12-29T10:37:49;16.93;;;13.13;;
8281;SDS011;25606;42.686;23.136;2022-12-29T10:40:21;16.57;;;12.20;;
8281;SDS011;25606;42.686;23.136;2022-12-29T10:42:51;17.67;;;12.43;;
8281;SDS011;25606;42.686;23.136;2022-12-29T10:45:19;16.80;;;12.47;;
8281;SDS011;25606;42.686;23.136;2022-12-29T10:47:52;15.97;;;11.87;;
8281;SDS011;25606;42.686;23.136;2022-12-29T10:50:20;14.57;;;11.77;;
8281;SDS011;25606;42.686;23.136;2022-12-29T10:52:48;14.87;;;11.50;;
8281;SDS011;25606;42.686;23.136;2022-12-29T10:55:17;13.90;;;11.20;;
8281;SDS011;25606;42.686;23.136;2022-12-29T10:57:46;15.13;;;11.10;;
8281;SDS011;25606;42.686;23.136;2022-12-29T11:00:16;14.50;;;10.90;;
8281;SDS011;25606;42.686;23.136;2022-12-29T11:02:57;13.80;;;10.80;;
8281;SDS011;25606;42.686;23.136;2022-12-29T11:05:32;13.63;;;10.90;;
8281;SDS011;25606;42.686;23.136;2022-12-29T11:08:02;15.00;;;10.70;;
8281;SDS011;25606;42.686;23.136;2022-12-29T11:10:30;13.17;;;10.83;;
8281;SDS011;25606;42.686;23.136;2022-12-29T11:13:02;16.60;;;10.23;;
8281;SDS011;25606;42.686;23.136;2022-12-29T11:15:37;14.80;;;9.97;;
8281;SDS011;25606;42.686;23.136;2022-12-29T11:18:08;14.00;;;11.00;;
8281;SDS011;25606;42.686;23.136;2022-12-29T11:20:44;14.83;;;11.40;;
8281;SDS011;25606;42.686;23.136;2022-12-29T11:23:21;15.77;;;11.27;;
8281;SDS011;25606;42.686;23.136;2022-12-29T11:25:56;17.60;;;11.97;;
8281;SDS011;25606;42.686;23.136;2022-12-29T11:28:32;15.70;;;11.57;;
8281;SDS011;25606;42.686;23.136;2022-12-29T11:30:59;14.43;;;11.07;;
8281;SDS011;25606;42.686;23.136;2022-12-29T11:33:29;13.53;;;11.10;;
8281;SDS011;25606;42.686;23.136;2022-12-29T11:35:57;13.73;;;10.87;;
8281;SDS011;25606;42.686;23.136;2022-12-29T11:38:26;16.70;;;11.03;;
8281;SDS011;25606;42.686;23.136;2022-12-29T11:40:58;14.60;;;11.23;;
8281;SDS011;25606;42.686;23.136;2022-12-29T11:43:26;15.13;;;10.70;;
8281;SDS011;25606;42.686;23.136;2022-12-29T11:45:58;14.47;;;11.33;;
8281;SDS011;25606;42.686;23.136;2022-12-29T11:48:31;13.47;;;11.67;;
8281;SDS011;25606;42.686;23.136;2022-12-29T11:50:59;14.17;;;11.70;;
8281;SDS011;25606;42.686;23.136;2022-12-29T11:53:27;14.40;;;11.57;;
8281;SDS011;25606;42.686;23.136;2022-12-29T11:55:55;13.77;;;11.57;;
8281;SDS011;25606;42.686;23.136;2022-12-29T11:58:28;16.70;;;11.90;;
8281;SDS011;25606;42.686;23.136;2022-12-29T12:00:57;15.47;;;11.50;;
8281;SDS011;25606;42.686;23.136;2022-12-29T12:03:27;14.97;;;11.17;;
8281;SDS011;25606;42.686;23.136;2022-12-29T12:05:58;17.20;;;11.77;;
8281;SDS011;25606;42.686;23.136;2022-12-29T12:08:30;14.53;;;12.03;;
8281;SDS011;25606;42.686;23.136;2022-12-29T12:11:01;14.87;;;10.73;;
8281;SDS011;25606;42.686;23.136;2022-12-29T12:13:31;15.90;;;11.33;;
8281;SDS011;25606;42.686;23.136;2022-12-29T12:16:03;13.57;;;11.33;;
8281;SDS011;25606;42.686;23.136;2022-12-29T12:18:36;15.30;;;10.80;;
8281;SDS011;25606;42.686;23.136;2022-12-29T12:21:08;15.50;;;11.70;;
8281;SDS011;25606;42.686;23.136;2022-12-29T12:23:39;15.30;;;12.17;;
8281;SDS011;25606;42.686;23.136;2022-12-29T12:26:09;13.73;;;11.53;;
8281;SDS011;25606;42.686;23.136;2022-12-29T12:28:40;13.83;;;11.23;;
8281;SDS011;25606;42.686;23.136;2022-12-29T12:31:13;13.70;;;11.60;;
8281;SDS011;25606;42.686;23.136;2022-12-29T12:33:44;17.03;;;11.80;;
8281;SDS011;25606;42.686;23.136;2022-12-29T12:36:24;17.40;;;13.33;;
8281;SDS011;25606;42.686;23.136;2022-12-29T12:38:55;17.70;;;13.10;;
8281;SDS011;25606;42.686;23.136;2022-12-29T12:41:25;16.07;;;12.13;;
8281;SDS011;25606;42.686;23.136;2022-12-29T12:43:56;18.47;;;13.03;;
8281;SDS011;25606;42.686;23.136;2022-12-29T12:52:00;16.83;;;12.23;;
8281;SDS011;25606;42.686;23.136;2022-12-29T12:54:34;16.33;;;12.07;;
8281;SDS011;25606;42.686;23.136;2022-12-29T12:57:07;15.40;;;11.73;;
8281;SDS011;25606;42.686;23.136;2022-12-29T12:59:42;14.67;;;11.67;;
8281;SDS011;25606;42.686;23.136;2022-12-29T13:02:15;16.23;;;12.23;;
8281;SDS011;25606;42.686;23.136;2022-12-29T13:07:37;16.47;;;13.07;;
8281;SDS011;25606;42.686;23.136;2022-12-29T13:10:19;17.90;;;13.90;;
8281;SDS011;25606;42.686;23.136;2022-12-29T13:12:49;20.57;;;14.70;;
8281;SDS011;25606;42.686;23.136;2022-12-29T13:15:35;18.57;;;13.47;;
8281;SDS011;25606;42.686;23.136;2022-12-29T13:18:05;21.30;;;15.80;;
8281;SDS011;25606;42.686;23.136;2022-12-29T13:20:39;20.67;;;14.97;;
8281;SDS011;25606;42.686;23.136;2022-12-29T13:23:14;21.93;;;14.67;;
8281;SDS011;25606;42.686;23.136;2022-12-29T13:25:45;20.53;;;15.20;;
8281;SDS011;25606;42.686;23.136;2022-12-29T13:28:17;23.53;;;16.10;;
8281;SDS011;25606;42.686;23.136;2022-12-29T13:30:48;24.00;;;16.97;;
8281;SDS011;25606;42.686;23.136;2022-12-29T13:33:19;21.90;;;16.03;;
8281;SDS011;25606;42.686;23.136;2022-12-29T13:35:51;25.20;;;17.23;;
8281;SDS011;25606;42.686;23.136;2022-12-29T13:38:22;23.93;;;17.10;;
8281;SDS011;25606;42.686;23.136;2022-12-29T13:40:52;22.50;;;16.97;;
8281;SDS011;25606;42.686;23.136;2022-12-29T13:43:22;21.73;;;17.13;;
8281;SDS011;25606;42.686;23.136;2022-12-29T13:45:53;25.20;;;17.90;;
8281;SDS011;25606;42.686;23.136;2022-12-29T13:48:23;26.40;;;18.37;;
8281;SDS011;25606;42.686;23.136;2022-12-29T13:50:54;23.57;;;17.27;;
8281;SDS011;25606;42.686;23.136;2022-12-29T13:53:29;22.73;;;17.20;;
8281;SDS011;25606;42.686;23.136;2022-12-29T13:56:03;23.70;;;16.40;;
8281;SDS011;25606;42.686;23.136;2022-12-29T13:58:34;24.93;;;17.87;;
8281;SDS011;25606;42.686;23.136;2022-12-29T14:01:07;31.47;;;18.47;;
8281;SDS011;25606;42.686;23.136;2022-12-29T14:03:47;24.17;;;16.97;;
8281;SDS011;25606;42.686;23.136;2022-12-29T14:06:20;28.67;;;18.57;;
8281;SDS011;25606;42.686;23.136;2022-12-29T14:08:50;27.70;;;17.43;;
8281;SDS011;25606;42.686;23.136;2022-12-29T14:11:20;27.60;;;18.07;;
8281;SDS011;25606;42.686;23.136;2022-12-29T14:13:49;25.40;;;17.63;;
8281;SDS011;25606;42.686;23.136;2022-12-29T14:19:09;28.00;;;19.47;;
8281;SDS011;25606;42.686;23.136;2022-12-29T14:21:37;28.30;;;18.67;;
8281;SDS011;25606;42.686;23.136;2022-12-29T14:26:53;29.57;;;19.93;;
8281;SDS011;25606;42.686;23.136;2022-12-29T14:29:41;29.47;;;18.60;;
8281;SDS011;25606;42.686;23.136;2022-12-29T14:34:51;28.20;;;19.70;;
8281;SDS011;25606;42.686;23.136;2022-12-29T14:37:23;27.67;;;18.67;;
8281;SDS011;25606;42.686;23.136;2022-12-29T14:40:01;30.03;;;18.97;;
8281;SDS011;25606;42.686;23.136;2022-12-29T14:42:30;29.17;;;20.43;;
8281;SDS011;25606;42.686;23.136;2022-12-29T14:45:00;31.23;;;20.70;;
8281;SDS011;25606;42.686;23.136;2022-12-29T14:47:31;30.83;;;20.27;;
8281;SDS011;25606;42.686;23.136;2022-12-29T14:50:02;26.27;;;19.00;;
8281;SDS011;25606;42.686;23.136;2022-12-29T14:52:30;25.77;;;18.13;;
8281;SDS011;25606;42.686;23.136;2022-12-29T14:54:58;26.87;;;16.27;;
8281;SDS011;25606;42.686;23.136;2022-12-29T14:57:32;24.23;;;17.17;;
8281;SDS011;25606;42.686;23.136;2022-12-29T15:00:02;22.77;;;17.30;;
8281;SDS011;25606;42.686;23.136;2022-12-29T15:02:32;22.20;;;15.83;;
8281;SDS011;25606;42.686;23.136;2022-12-29T15:05:02;18.70;;;14.20;;